sensor_id;sensor_type;location;lat;lon;timestamp;P1;durP1;ratioP1;P2;durP2;ratioP2
48859;SDS011;34679;51.436;-2.518;2022-12-07T00:03:40;24.25;;;12.90;;
48859;SDS011;34679;51.436;-2.518;2022-12-07T00:06:08;22.08;;;13.65;;
48859;SDS011;34679;51.436;-2.518;2022-12-07T00:08:35;25.10;;;13.60;;
48859;SDS011;34679;51.436;-2.518;2022-12-07T00:13:31;27.13;;;13.52;;
48859;SDS011;34679;51.436;-2.518;2022-12-07T00:16:02;22.88;;;13.70;;
48859;SDS011;34679;51.436;-2.518;2022-12-07T00:18:48;19.00;;;13.73;;
48859;SDS011;34679;51.436;-2.518;2022-12-07T00:21:16;17.73;;;13.68;;
48859;SDS011;34679;51.436;-2.518;2022-12-07T00:23:44;22.70;;;13.77;;
48859;SDS011;34679;51.436;-2.518;2022-12-07T00:26:11;23.13;;;14.45;;
48859;SDS011;34679;51.436;-2.518;2022-12-07T00:28:39;21.40;;;14.65;;
48859;SDS011;34679;51.436;-2.518;2022-12-07T00:31:06;25.70;;;16.00;;
48859;SDS011;34679;51.436;-2.518;2022-12-07T00:33:34;22.58;;;15.50;;
48859;SDS011;34679;51.436;-2.518;2022-12-07T00:36:00;26.77;;;16.15;;
48859;SDS011;34679;51.436;-2.518;2022-12-07T00:38:28;29.52;;;15.93;;
48859;SDS011;34679;51.436;-2.518;2022-12-07T00:40:56;27.33;;;15.90;;
48859;SDS011;34679;51.436;-2.518;2022-12-07T00:43:23;28.80;;;15.93;;
48859;SDS011;34679;51.436;-2.518;2022-12-07T00:45:49;26.02;;;14.60;;
48859;SDS011;34679;51.436;-2.518;2022-12-07T00:48:15;22.83;;;13.98;;
48859;SDS011;34679;51.436;-2.518;2022-12-07T00:50:40;22.92;;;15.48;;
48859;SDS011;34679;51.436;-2.518;2022-12-07T00:53:06;26.88;;;14.65;;
48859;SDS011;34679;51.436;-2.518;2022-12-07T00:55:35;28.15;;;15.75;;
48859;SDS011;34679;51.436;-2.518;2022-12-07T00:58:01;26.27;;;15.23;;
48859;SDS011;34679;51.436;-2.518;2022-12-07T01:00:27;28.35;;;16.42;;
48859;SDS011;34679;51.436;-2.518;2022-12-07T01:02:53;29.38;;;15.35;;
48859;SDS011;34679;51.436;-2.518;2022-12-07T01:05:18;29.30;;;16.13;;
48859;SDS011;34679;51.436;-2.518;2022-12-07T01:07:44;30.80;;;15.45;;
48859;SDS011;34679;51.436;-2.518;2022-12-07T01:10:11;27.55;;;14.18;;
48859;SDS011;34679;51.436;-2.518;2022-12-07T01:12:37;29.10;;;14.90;;
48859;SDS011;34679;51.436;-2.518;2022-12-07T01:15:03;23.73;;;15.18;;
48859;SDS011;34679;51.436;-2.518;2022-12-07T01:17:29;30.25;;;14.57;;
48859;SDS011;34679;51.436;-2.518;2022-12-07T01:19:55;22.88;;;15.18;;
48859;SDS011;34679;51.436;-2.518;2022-12-07T01:22:21;27.10;;;15.52;;
48859;SDS011;34679;51.436;-2.518;2022-12-07T01:24:46;30.15;;;15.98;;
48859;SDS011;34679;51.436;-2.518;2022-12-07T01:27:12;26.27;;;14.88;;
48859;SDS011;34679;51.436;-2.518;2022-12-07T01:29:38;24.08;;;14.55;;
48859;SDS011;34679;51.436;-2.518;2022-12-07T01:32:04;32.53;;;16.38;;
48859;SDS011;34679;51.436;-2.518;2022-12-07T01:34:30;26.10;;;15.68;;
48859;SDS011;34679;51.436;-2.518;2022-12-07T01:36:56;27.02;;;14.30;;
48859;SDS011;34679;51.436;-2.518;2022-12-07T01:39:22;23.35;;;13.88;;
48859;SDS011;34679;51.436;-2.518;2022-12-07T01:41:48;30.40;;;15.77;;
48859;SDS011;34679;51.436;-2.518;2022-12-07T01:44:26;25.95;;;15.70;;
48859;SDS011;34679;51.436;-2.518;2022-12-07T01:47:01;27.38;;;14.38;;
48859;SDS011;34679;51.436;-2.518;2022-12-07T01:49:41;26.13;;;14.68;;
48859;SDS011;34679;51.436;-2.518;2022-12-07T01:52:13;26.92;;;15.55;;
48859;SDS011;34679;51.436;-2.518;2022-12-07T01:54:40;32.10;;;15.85;;
48859;SDS011;34679;51.436;-2.518;2022-12-07T01:57:07;24.17;;;16.60;;
48859;SDS011;34679;51.436;-2.518;2022-12-07T01:59:33;32.58;;;15.00;;
48859;SDS011;34679;51.436;-2.518;2022-12-07T02:02:00;26.25;;;15.35;;
48859;SDS011;34679;51.436;-2.518;2022-12-07T02:04:29;29.45;;;15.38;;
48859;SDS011;34679;51.436;-2.518;2022-12-07T02:06:55;33.80;;;17.10;;
48859;SDS011;34679;51.436;-2.518;2022-12-07T02:09:22;35.78;;;16.63;;
48859;SDS011;34679;51.436;-2.518;2022-12-07T02:11:48;28.17;;;15.65;;
48859;SDS011;34679;51.436;-2.518;2022-12-07T02:14:14;30.20;;;15.93;;
48859;SDS011;34679;51.436;-2.518;2022-12-07T02:16:56;26.70;;;14.77;;
48859;SDS011;34679;51.436;-2.518;2022-12-07T02:24:54;30.00;;;14.43;;
48859;SDS011;34679;51.436;-2.518;2022-12-07T02:27:45;31.02;;;14.05;;
48859;SDS011;34679;51.436;-2.518;2022-12-07T02:30:15;23.05;;;13.52;;
48859;SDS011;34679;51.436;-2.518;2022-12-07T02:35:32;25.30;;;15.05;;
48859;SDS011;34679;51.436;-2.518;2022-12-07T02:43:25;33.13;;;15.70;;
48859;SDS011;34679;51.436;-2.518;2022-12-07T02:46:06;27.02;;;15.63;;
48859;SDS011;34679;51.436;-2.518;2022-12-07T02:48:36;29.42;;;16.52;;
48859;SDS011;34679;51.436;-2.518;2022-12-07T02:51:04;31.33;;;16.70;;
48859;SDS011;34679;51.436;-2.518;2022-12-07T02:53:34;28.05;;;15.95;;
48859;SDS011;34679;51.436;-2.518;2022-12-07T02:56:14;26.48;;;14.88;;
48859;SDS011;34679;51.436;-2.518;2022-12-07T03:15:51;29.42;;;14.80;;
48859;SDS011;34679;51.436;-2.518;2022-12-07T03:18:24;29.50;;;15.27;;
48859;SDS011;34679;51.436;-2.518;2022-12-07T03:20:53;32.72;;;15.52;;
48859;SDS011;34679;51.436;-2.518;2022-12-07T03:23:22;28.45;;;15.93;;
48859;SDS011;34679;51.436;-2.518;2022-12-07T03:25:53;38.42;;;16.52;;
48859;SDS011;34679;51.436;-2.518;2022-12-07T03:28:24;29.05;;;16.27;;
48859;SDS011;34679;51.436;-2.518;2022-12-07T03:30:56;29.88;;;16.48;;
48859;SDS011;34679;51.436;-2.518;2022-12-07T03:33:31;24.35;;;15.07;;
48859;SDS011;34679;51.436;-2.518;2022-12-07T03:36:11;33.55;;;16.77;;
48859;SDS011;34679;51.436;-2.518;2022-12-07T03:38:48;26.42;;;14.95;;
48859;SDS011;34679;51.436;-2.518;2022-12-07T03:41:32;25.55;;;14.77;;
48859;SDS011;34679;51.436;-2.518;2022-12-07T03:44:01;23.58;;;14.77;;
48859;SDS011;34679;51.436;-2.518;2022-12-07T03:49:14;19.33;;;14.02;;
48859;SDS011;34679;51.436;-2.518;2022-12-07T03:54:15;28.73;;;15.73;;
48859;SDS011;34679;51.436;-2.518;2022-12-07T03:56:46;29.85;;;16.83;;
48859;SDS011;34679;51.436;-2.518;2022-12-07T03:59:13;30.63;;;16.20;;
48859;SDS011;34679;51.436;-2.518;2022-12-07T04:01:41;31.23;;;16.05;;
48859;SDS011;34679;51.436;-2.518;2022-12-07T04:04:16;33.60;;;15.75;;
48859;SDS011;34679;51.436;-2.518;2022-12-07T04:06:42;33.78;;;17.27;;
48859;SDS011;34679;51.436;-2.518;2022-12-07T04:09:07;30.45;;;15.68;;
48859;SDS011;34679;51.436;-2.518;2022-12-07T04:11:33;33.22;;;17.02;;
48859;SDS011;34679;51.436;-2.518;2022-12-07T04:13:59;30.70;;;15.63;;
48859;SDS011;34679;51.436;-2.518;2022-12-07T04:16:43;33.65;;;15.82;;
48859;SDS011;34679;51.436;-2.518;2022-12-07T04:19:16;35.90;;;16.23;;
48859;SDS011;34679;51.436;-2.518;2022-12-07T04:21:42;24.75;;;14.75;;
48859;SDS011;34679;51.436;-2.518;2022-12-07T04:24:08;33.63;;;16.55;;
48859;SDS011;34679;51.436;-2.518;2022-12-07T04:26:34;35.33;;;16.15;;
48859;SDS011;34679;51.436;-2.518;2022-12-07T04:29:00;40.55;;;17.58;;
48859;SDS011;34679;51.436;-2.518;2022-12-07T04:31:26;30.88;;;15.57;;
48859;SDS011;34679;51.436;-2.518;2022-12-07T04:33:51;28.80;;;15.48;;
48859;SDS011;34679;51.436;-2.518;2022-12-07T04:36:17;31.58;;;15.10;;
48859;SDS011;34679;51.436;-2.518;2022-12-07T04:38:44;30.38;;;15.13;;
48859;SDS011;34679;51.436;-2.518;2022-12-07T04:41:10;38.10;;;16.65;;
48859;SDS011;34679;51.436;-2.518;2022-12-07T04:43:36;33.78;;;16.15;;
48859;SDS011;34679;51.436;-2.518;2022-12-07T04:46:02;29.15;;;15.00;;
48859;SDS011;34679;51.436;-2.518;2022-12-07T04:48:28;36.08;;;16.42;;
48859;SDS011;34679;51.436;-2.518;2022-12-07T04:50:54;38.50;;;16.00;;
48859;SDS011;34679;51.436;-2.518;2022-12-07T04:53:20;34.47;;;14.48;;
48859;SDS011;34679;51.436;-2.518;2022-12-07T04:55:45;27.98;;;14.52;;
48859;SDS011;34679;51.436;-2.518;2022-12-07T04:58:12;25.02;;;14.85;;
48859;SDS011;34679;51.436;-2.518;2022-12-07T05:00:38;28.48;;;14.63;;
48859;SDS011;34679;51.436;-2.518;2022-12-07T05:03:04;28.55;;;14.45;;
48859;SDS011;34679;51.436;-2.518;2022-12-07T05:05:30;32.65;;;15.23;;
48859;SDS011;34679;51.436;-2.518;2022-12-07T05:07:56;34.45;;;15.23;;
48859;SDS011;34679;51.436;-2.518;2022-12-07T05:10:21;33.45;;;14.30;;
48859;SDS011;34679;51.436;-2.518;2022-12-07T05:12:47;28.88;;;14.95;;
48859;SDS011;34679;51.436;-2.518;2022-12-07T05:15:13;29.40;;;15.85;;
48859;SDS011;34679;51.436;-2.518;2022-12-07T05:17:40;30.58;;;13.88;;
48859;SDS011;34679;51.436;-2.518;2022-12-07T05:20:06;33.40;;;14.73;;
48859;SDS011;34679;51.436;-2.518;2022-12-07T05:22:33;33.45;;;14.60;;
48859;SDS011;34679;51.436;-2.518;2022-12-07T05:24:58;27.45;;;13.20;;
48859;SDS011;34679;51.436;-2.518;2022-12-07T05:27:24;25.42;;;13.10;;
48859;SDS011;34679;51.436;-2.518;2022-12-07T05:29:50;27.92;;;13.93;;
48859;SDS011;34679;51.436;-2.518;2022-12-07T05:32:16;24.17;;;12.70;;
48859;SDS011;34679;51.436;-2.518;2022-12-07T05:34:42;25.92;;;12.18;;
48859;SDS011;34679;51.436;-2.518;2022-12-07T05:37:08;23.90;;;11.57;;
48859;SDS011;34679;51.436;-2.518;2022-12-07T05:39:33;29.83;;;12.90;;
48859;SDS011;34679;51.436;-2.518;2022-12-07T05:41:59;25.17;;;12.07;;
48859;SDS011;34679;51.436;-2.518;2022-12-07T05:44:37;26.83;;;12.73;;
48859;SDS011;34679;51.436;-2.518;2022-12-07T05:47:03;22.92;;;12.63;;
48859;SDS011;34679;51.436;-2.518;2022-12-07T05:49:29;22.13;;;11.80;;
48859;SDS011;34679;51.436;-2.518;2022-12-07T05:51:55;23.25;;;12.95;;
48859;SDS011;34679;51.436;-2.518;2022-12-07T05:54:20;38.65;;;13.73;;
48859;SDS011;34679;51.436;-2.518;2022-12-07T05:56:46;24.65;;;12.80;;
48859;SDS011;34679;51.436;-2.518;2022-12-07T05:59:12;30.20;;;13.98;;
48859;SDS011;34679;51.436;-2.518;2022-12-07T06:02:00;25.98;;;13.43;;
48859;SDS011;34679;51.436;-2.518;2022-12-07T06:04:37;22.92;;;11.57;;
48859;SDS011;34679;51.436;-2.518;2022-12-07T06:07:04;20.67;;;11.48;;
48859;SDS011;34679;51.436;-2.518;2022-12-07T06:09:30;32.47;;;13.68;;
48859;SDS011;34679;51.436;-2.518;2022-12-07T06:11:56;21.52;;;12.82;;
48859;SDS011;34679;51.436;-2.518;2022-12-07T06:14:41;24.33;;;13.18;;
48859;SDS011;34679;51.436;-2.518;2022-12-07T06:17:07;23.90;;;13.85;;
48859;SDS011;34679;51.436;-2.518;2022-12-07T06:19:33;27.33;;;13.70;;
48859;SDS011;34679;51.436;-2.518;2022-12-07T06:21:58;27.83;;;14.85;;
48859;SDS011;34679;51.436;-2.518;2022-12-07T06:24:24;28.20;;;14.15;;
48859;SDS011;34679;51.436;-2.518;2022-12-07T06:26:50;25.17;;;14.57;;
48859;SDS011;34679;51.436;-2.518;2022-12-07T06:29:17;27.63;;;14.82;;
48859;SDS011;34679;51.436;-2.518;2022-12-07T06:31:43;32.30;;;15.25;;
48859;SDS011;34679;51.436;-2.518;2022-12-07T06:34:13;31.80;;;15.50;;
48859;SDS011;34679;51.436;-2.518;2022-12-07T06:36:40;39.95;;;14.90;;
48859;SDS011;34679;51.436;-2.518;2022-12-07T06:39:06;37.70;;;15.07;;
48859;SDS011;34679;51.436;-2.518;2022-12-07T06:41:34;27.55;;;13.95;;
48859;SDS011;34679;51.436;-2.518;2022-12-07T06:44:00;36.42;;;15.48;;
48859;SDS011;34679;51.436;-2.518;2022-12-07T06:46:26;25.70;;;15.05;;
48859;SDS011;34679;51.436;-2.518;2022-12-07T06:48:52;36.28;;;15.20;;
48859;SDS011;34679;51.436;-2.518;2022-12-07T06:51:18;32.70;;;15.88;;
48859;SDS011;34679;51.436;-2.518;2022-12-07T06:53:44;27.77;;;14.45;;
48859;SDS011;34679;51.436;-2.518;2022-12-07T06:56:09;33.70;;;15.40;;
48859;SDS011;34679;51.436;-2.518;2022-12-07T06:58:35;27.30;;;14.63;;
48859;SDS011;34679;51.436;-2.518;2022-12-07T07:01:01;31.30;;;14.95;;
48859;SDS011;34679;51.436;-2.518;2022-12-07T07:03:27;33.20;;;15.85;;
48859;SDS011;34679;51.436;-2.518;2022-12-07T07:05:53;39.40;;;16.83;;
48859;SDS011;34679;51.436;-2.518;2022-12-07T07:08:19;38.67;;;16.98;;
48859;SDS011;34679;51.436;-2.518;2022-12-07T07:10:44;39.00;;;18.85;;
48859;SDS011;34679;51.436;-2.518;2022-12-07T07:13:10;44.85;;;17.92;;
48859;SDS011;34679;51.436;-2.518;2022-12-07T07:15:36;33.42;;;17.33;;
48859;SDS011;34679;51.436;-2.518;2022-12-07T07:18:03;34.38;;;18.08;;
48859;SDS011;34679;51.436;-2.518;2022-12-07T07:20:29;40.88;;;16.75;;
48859;SDS011;34679;51.436;-2.518;2022-12-07T07:22:55;33.33;;;16.92;;
48859;SDS011;34679;51.436;-2.518;2022-12-07T07:25:21;36.83;;;17.50;;
48859;SDS011;34679;51.436;-2.518;2022-12-07T07:27:47;34.45;;;17.92;;
48859;SDS011;34679;51.436;-2.518;2022-12-07T07:30:13;36.95;;;17.85;;
48859;SDS011;34679;51.436;-2.518;2022-12-07T07:32:39;35.20;;;18.60;;
48859;SDS011;34679;51.436;-2.518;2022-12-07T07:35:05;37.28;;;17.98;;
48859;SDS011;34679;51.436;-2.518;2022-12-07T07:37:31;40.78;;;18.67;;
48859;SDS011;34679;51.436;-2.518;2022-12-07T07:39:56;37.53;;;17.75;;
48859;SDS011;34679;51.436;-2.518;2022-12-07T07:42:22;38.53;;;20.33;;
48859;SDS011;34679;51.436;-2.518;2022-12-07T07:44:48;40.65;;;20.45;;
48859;SDS011;34679;51.436;-2.518;2022-12-07T07:47:13;43.70;;;20.15;;
48859;SDS011;34679;51.436;-2.518;2022-12-07T07:49:39;45.47;;;21.70;;
48859;SDS011;34679;51.436;-2.518;2022-12-07T07:52:05;36.17;;;19.90;;
48859;SDS011;34679;51.436;-2.518;2022-12-07T07:54:31;32.05;;;18.70;;
48859;SDS011;34679;51.436;-2.518;2022-12-07T07:56:57;39.88;;;19.80;;
48859;SDS011;34679;51.436;-2.518;2022-12-07T07:59:22;43.35;;;19.55;;
48859;SDS011;34679;51.436;-2.518;2022-12-07T08:01:49;43.72;;;18.70;;
48859;SDS011;34679;51.436;-2.518;2022-12-07T08:04:15;36.20;;;18.45;;
48859;SDS011;34679;51.436;-2.518;2022-12-07T08:06:41;34.67;;;18.35;;
48859;SDS011;34679;51.436;-2.518;2022-12-07T08:09:07;32.85;;;17.27;;
48859;SDS011;34679;51.436;-2.518;2022-12-07T08:11:33;43.50;;;19.67;;
48859;SDS011;34679;51.436;-2.518;2022-12-07T08:13:59;38.45;;;19.40;;
48859;SDS011;34679;51.436;-2.518;2022-12-07T08:16:25;47.53;;;21.10;;
48859;SDS011;34679;51.436;-2.518;2022-12-07T08:18:51;44.50;;;21.23;;
48859;SDS011;34679;51.436;-2.518;2022-12-07T08:21:17;40.03;;;21.77;;
48859;SDS011;34679;51.436;-2.518;2022-12-07T08:23:43;42.00;;;23.60;;
48859;SDS011;34679;51.436;-2.518;2022-12-07T08:26:10;37.53;;;19.58;;
48859;SDS011;34679;51.436;-2.518;2022-12-07T08:28:37;34.28;;;18.30;;
48859;SDS011;34679;51.436;-2.518;2022-12-07T08:31:15;33.65;;;17.02;;
48859;SDS011;34679;51.436;-2.518;2022-12-07T08:33:44;25.30;;;16.35;;
48859;SDS011;34679;51.436;-2.518;2022-12-07T08:36:11;31.05;;;17.00;;
48859;SDS011;34679;51.436;-2.518;2022-12-07T08:38:38;30.48;;;16.88;;
48859;SDS011;34679;51.436;-2.518;2022-12-07T08:41:05;33.75;;;16.42;;
48859;SDS011;34679;51.436;-2.518;2022-12-07T08:43:31;29.20;;;17.45;;
48859;SDS011;34679;51.436;-2.518;2022-12-07T08:48:41;35.35;;;17.30;;
48859;SDS011;34679;51.436;-2.518;2022-12-07T08:51:14;29.27;;;16.27;;
48859;SDS011;34679;51.436;-2.518;2022-12-07T08:53:40;35.17;;;17.23;;
48859;SDS011;34679;51.436;-2.518;2022-12-07T08:56:07;40.58;;;23.15;;
48859;SDS011;34679;51.436;-2.518;2022-12-07T08:58:34;58.95;;;33.90;;
48859;SDS011;34679;51.436;-2.518;2022-12-07T09:01:01;55.58;;;33.60;;
48859;SDS011;34679;51.436;-2.518;2022-12-07T09:03:27;66.32;;;34.47;;
48859;SDS011;34679;51.436;-2.518;2022-12-07T09:05:53;46.78;;;31.90;;
48859;SDS011;34679;51.436;-2.518;2022-12-07T09:08:19;52.75;;;32.92;;
48859;SDS011;34679;51.436;-2.518;2022-12-07T09:10:46;49.20;;;31.40;;
48859;SDS011;34679;51.436;-2.518;2022-12-07T09:13:12;57.28;;;33.17;;
48859;SDS011;34679;51.436;-2.518;2022-12-07T09:15:38;52.83;;;27.60;;
48859;SDS011;34679;51.436;-2.518;2022-12-07T09:18:04;41.15;;;25.63;;
48859;SDS011;34679;51.436;-2.518;2022-12-07T09:20:30;39.88;;;24.17;;
48859;SDS011;34679;51.436;-2.518;2022-12-07T09:22:56;36.67;;;22.20;;
48859;SDS011;34679;51.436;-2.518;2022-12-07T09:25:22;37.33;;;21.20;;
48859;SDS011;34679;51.436;-2.518;2022-12-07T09:27:47;39.63;;;22.58;;
48859;SDS011;34679;51.436;-2.518;2022-12-07T09:30:13;34.15;;;20.60;;
48859;SDS011;34679;51.436;-2.518;2022-12-07T09:32:39;44.45;;;20.15;;
48859;SDS011;34679;51.436;-2.518;2022-12-07T09:35:04;33.30;;;19.60;;
48859;SDS011;34679;51.436;-2.518;2022-12-07T09:37:30;36.72;;;21.10;;
48859;SDS011;34679;51.436;-2.518;2022-12-07T09:40:00;34.83;;;21.17;;
48859;SDS011;34679;51.436;-2.518;2022-12-07T09:42:31;36.40;;;20.17;;
48859;SDS011;34679;51.436;-2.518;2022-12-07T09:44:59;37.13;;;22.08;;
48859;SDS011;34679;51.436;-2.518;2022-12-07T09:47:26;38.95;;;19.27;;
48859;SDS011;34679;51.436;-2.518;2022-12-07T09:49:55;36.45;;;17.38;;
48859;SDS011;34679;51.436;-2.518;2022-12-07T09:52:29;42.28;;;20.02;;
48859;SDS011;34679;51.436;-2.518;2022-12-07T09:54:55;32.17;;;19.52;;
48859;SDS011;34679;51.436;-2.518;2022-12-07T09:57:25;34.30;;;18.60;;
48859;SDS011;34679;51.436;-2.518;2022-12-07T09:59:59;28.00;;;17.98;;
48859;SDS011;34679;51.436;-2.518;2022-12-07T10:02:38;29.33;;;16.73;;
48859;SDS011;34679;51.436;-2.518;2022-12-07T10:05:06;31.35;;;15.80;;
48859;SDS011;34679;51.436;-2.518;2022-12-07T10:07:35;31.27;;;16.13;;
48859;SDS011;34679;51.436;-2.518;2022-12-07T10:10:03;28.35;;;17.02;;
48859;SDS011;34679;51.436;-2.518;2022-12-07T10:15:40;32.63;;;16.55;;
48859;SDS011;34679;51.436;-2.518;2022-12-07T10:20:59;28.88;;;16.25;;
48859;SDS011;34679;51.436;-2.518;2022-12-07T10:24:01;30.63;;;17.55;;
48859;SDS011;34679;51.436;-2.518;2022-12-07T10:26:36;25.65;;;17.50;;
48859;SDS011;34679;51.436;-2.518;2022-12-07T10:31:40;23.83;;;15.43;;
48859;SDS011;34679;51.436;-2.518;2022-12-07T10:34:15;24.67;;;14.23;;
48859;SDS011;34679;51.436;-2.518;2022-12-07T10:36:49;20.77;;;14.02;;
48859;SDS011;34679;51.436;-2.518;2022-12-07T10:39:16;21.17;;;13.52;;
48859;SDS011;34679;51.436;-2.518;2022-12-07T10:41:53;23.77;;;13.90;;
48859;SDS011;34679;51.436;-2.518;2022-12-07T10:44:23;28.15;;;12.93;;
48859;SDS011;34679;51.436;-2.518;2022-12-07T11:01:10;16.67;;;11.20;;
48859;SDS011;34679;51.436;-2.518;2022-12-07T11:15:42;24.77;;;11.15;;
48859;SDS011;34679;51.436;-2.518;2022-12-07T11:18:12;19.55;;;11.00;;
48859;SDS011;34679;51.436;-2.518;2022-12-07T11:26:36;21.42;;;10.90;;
48859;SDS011;34679;51.436;-2.518;2022-12-07T11:37:23;14.85;;;8.20;;
48859;SDS011;34679;51.436;-2.518;2022-12-07T11:42:25;14.65;;;7.38;;
48859;SDS011;34679;51.436;-2.518;2022-12-07T11:44:53;14.65;;;7.30;;
48859;SDS011;34679;51.436;-2.518;2022-12-07T11:47:28;19.23;;;8.35;;
48859;SDS011;34679;51.436;-2.518;2022-12-07T11:50:22;18.65;;;7.03;;
48859;SDS011;34679;51.436;-2.518;2022-12-07T11:52:53;12.70;;;7.40;;
48859;SDS011;34679;51.436;-2.518;2022-12-07T12:03:50;16.15;;;7.88;;
48859;SDS011;34679;51.436;-2.518;2022-12-07T12:06:31;17.80;;;7.53;;
48859;SDS011;34679;51.436;-2.518;2022-12-07T12:20:00;7.93;;;5.68;;
48859;SDS011;34679;51.436;-2.518;2022-12-07T12:22:50;12.57;;;6.22;;
48859;SDS011;34679;51.436;-2.518;2022-12-07T12:25:48;12.93;;;6.03;;
48859;SDS011;34679;51.436;-2.518;2022-12-07T12:33:37;9.55;;;5.93;;
48859;SDS011;34679;51.436;-2.518;2022-12-07T12:36:28;12.18;;;5.07;;
48859;SDS011;34679;51.436;-2.518;2022-12-07T12:39:11;16.45;;;4.70;;
48859;SDS011;34679;51.436;-2.518;2022-12-07T12:51:51;9.75;;;4.32;;
48859;SDS011;34679;51.436;-2.518;2022-12-07T12:57:08;14.70;;;4.65;;
48859;SDS011;34679;51.436;-2.518;2022-12-07T13:04:59;8.05;;;4.40;;
48859;SDS011;34679;51.436;-2.518;2022-12-07T13:15:36;13.48;;;4.63;;
48859;SDS011;34679;51.436;-2.518;2022-12-07T13:20:53;11.75;;;4.72;;
48859;SDS011;34679;51.436;-2.518;2022-12-07T13:28:42;12.45;;;3.85;;
48859;SDS011;34679;51.436;-2.518;2022-12-07T13:31:30;11.55;;;4.13;;
48859;SDS011;34679;51.436;-2.518;2022-12-07T13:33:59;12.88;;;4.03;;
48859;SDS011;34679;51.436;-2.518;2022-12-07T13:36:27;6.00;;;3.08;;
48859;SDS011;34679;51.436;-2.518;2022-12-07T13:39:01;9.70;;;3.90;;
48859;SDS011;34679;51.436;-2.518;2022-12-07T13:41:41;12.82;;;3.70;;
48859;SDS011;34679;51.436;-2.518;2022-12-07T13:44:16;14.35;;;3.60;;
48859;SDS011;34679;51.436;-2.518;2022-12-07T13:46:53;6.80;;;3.45;;
48859;SDS011;34679;51.436;-2.518;2022-12-07T13:49:46;5.70;;;2.80;;
48859;SDS011;34679;51.436;-2.518;2022-12-07T13:52:18;11.43;;;3.17;;
48859;SDS011;34679;51.436;-2.518;2022-12-07T13:54:48;12.07;;;3.40;;
48859;SDS011;34679;51.436;-2.518;2022-12-07T13:57:20;13.02;;;4.55;;
48859;SDS011;34679;51.436;-2.518;2022-12-07T13:59:47;11.80;;;3.85;;
48859;SDS011;34679;51.436;-2.518;2022-12-07T14:02:20;5.30;;;3.67;;
48859;SDS011;34679;51.436;-2.518;2022-12-07T14:05:06;10.43;;;3.50;;
48859;SDS011;34679;51.436;-2.518;2022-12-07T14:07:54;10.50;;;3.97;;
48859;SDS011;34679;51.436;-2.518;2022-12-07T14:15:51;9.30;;;3.67;;
48859;SDS011;34679;51.436;-2.518;2022-12-07T14:18:24;12.82;;;3.50;;
48859;SDS011;34679;51.436;-2.518;2022-12-07T14:23:36;13.95;;;3.95;;
48859;SDS011;34679;51.436;-2.518;2022-12-07T14:28:39;13.05;;;3.60;;
48859;SDS011;34679;51.436;-2.518;2022-12-07T14:31:15;13.90;;;3.97;;
48859;SDS011;34679;51.436;-2.518;2022-12-07T14:33:43;20.85;;;4.78;;
48859;SDS011;34679;51.436;-2.518;2022-12-07T14:36:09;10.77;;;3.22;;
48859;SDS011;34679;51.436;-2.518;2022-12-07T14:38:37;7.57;;;3.17;;
48859;SDS011;34679;51.436;-2.518;2022-12-07T14:41:03;7.60;;;3.35;;
48859;SDS011;34679;51.436;-2.518;2022-12-07T14:43:49;12.52;;;3.65;;
48859;SDS011;34679;51.436;-2.518;2022-12-07T14:46:15;9.18;;;3.30;;
48859;SDS011;34679;51.436;-2.518;2022-12-07T14:48:40;16.83;;;5.05;;
48859;SDS011;34679;51.436;-2.518;2022-12-07T14:51:07;8.13;;;3.75;;
48859;SDS011;34679;51.436;-2.518;2022-12-07T14:53:38;11.73;;;3.80;;
48859;SDS011;34679;51.436;-2.518;2022-12-07T14:56:11;10.23;;;4.00;;
48859;SDS011;34679;51.436;-2.518;2022-12-07T14:58:36;8.05;;;3.30;;
48859;SDS011;34679;51.436;-2.518;2022-12-07T15:01:02;19.38;;;4.30;;
48859;SDS011;34679;51.436;-2.518;2022-12-07T15:03:28;10.63;;;4.03;;
48859;SDS011;34679;51.436;-2.518;2022-12-07T15:05:54;12.05;;;3.72;;
48859;SDS011;34679;51.436;-2.518;2022-12-07T15:08:20;13.68;;;4.18;;
48859;SDS011;34679;51.436;-2.518;2022-12-07T15:10:46;9.25;;;3.90;;
48859;SDS011;34679;51.436;-2.518;2022-12-07T15:13:11;8.82;;;3.53;;
48859;SDS011;34679;51.436;-2.518;2022-12-07T15:15:56;11.60;;;3.80;;
48859;SDS011;34679;51.436;-2.518;2022-12-07T15:18:22;10.23;;;4.10;;
48859;SDS011;34679;51.436;-2.518;2022-12-07T15:20:49;6.68;;;3.45;;
48859;SDS011;34679;51.436;-2.518;2022-12-07T15:23:15;7.07;;;3.92;;
48859;SDS011;34679;51.436;-2.518;2022-12-07T15:25:44;10.32;;;4.00;;
48859;SDS011;34679;51.436;-2.518;2022-12-07T15:28:11;7.18;;;3.17;;
48859;SDS011;34679;51.436;-2.518;2022-12-07T15:30:38;12.32;;;4.13;;
48859;SDS011;34679;51.436;-2.518;2022-12-07T15:33:10;8.90;;;3.78;;
48859;SDS011;34679;51.436;-2.518;2022-12-07T15:35:43;7.68;;;3.97;;
48859;SDS011;34679;51.436;-2.518;2022-12-07T15:38:09;11.95;;;3.65;;
48859;SDS011;34679;51.436;-2.518;2022-12-07T15:40:36;12.70;;;4.32;;
48859;SDS011;34679;51.436;-2.518;2022-12-07T15:43:02;11.00;;;3.50;;
48859;SDS011;34679;51.436;-2.518;2022-12-07T15:45:28;15.93;;;5.20;;
48859;SDS011;34679;51.436;-2.518;2022-12-07T15:47:53;9.38;;;4.30;;
48859;SDS011;34679;51.436;-2.518;2022-12-07T15:50:20;8.88;;;3.90;;
48859;SDS011;34679;51.436;-2.518;2022-12-07T15:52:46;11.52;;;5.00;;
48859;SDS011;34679;51.436;-2.518;2022-12-07T15:55:12;9.00;;;4.60;;
48859;SDS011;34679;51.436;-2.518;2022-12-07T15:57:38;14.15;;;4.47;;
48859;SDS011;34679;51.436;-2.518;2022-12-07T16:00:05;12.82;;;4.65;;
48859;SDS011;34679;51.436;-2.518;2022-12-07T16:02:33;16.50;;;6.13;;
48859;SDS011;34679;51.436;-2.518;2022-12-07T16:04:59;16.10;;;5.20;;
48859;SDS011;34679;51.436;-2.518;2022-12-07T16:07:25;13.25;;;5.60;;
48859;SDS011;34679;51.436;-2.518;2022-12-07T16:09:50;9.35;;;6.15;;
48859;SDS011;34679;51.436;-2.518;2022-12-07T16:12:16;12.32;;;5.53;;
48859;SDS011;34679;51.436;-2.518;2022-12-07T16:14:42;13.52;;;5.95;;
48859;SDS011;34679;51.436;-2.518;2022-12-07T16:17:08;13.30;;;5.93;;
48859;SDS011;34679;51.436;-2.518;2022-12-07T16:19:35;16.73;;;6.13;;
48859;SDS011;34679;51.436;-2.518;2022-12-07T16:22:01;14.23;;;5.85;;
48859;SDS011;34679;51.436;-2.518;2022-12-07T16:24:28;12.43;;;6.20;;
48859;SDS011;34679;51.436;-2.518;2022-12-07T16:26:54;12.32;;;7.38;;
48859;SDS011;34679;51.436;-2.518;2022-12-07T16:29:20;15.82;;;7.10;;
48859;SDS011;34679;51.436;-2.518;2022-12-07T16:31:47;18.95;;;6.97;;
48859;SDS011;34679;51.436;-2.518;2022-12-07T16:34:14;17.40;;;8.65;;
48859;SDS011;34679;51.436;-2.518;2022-12-07T16:36:40;18.48;;;8.45;;
48859;SDS011;34679;51.436;-2.518;2022-12-07T16:39:06;15.10;;;8.13;;
48859;SDS011;34679;51.436;-2.518;2022-12-07T16:41:32;18.75;;;8.10;;
48859;SDS011;34679;51.436;-2.518;2022-12-07T16:44:01;15.60;;;8.43;;
48859;SDS011;34679;51.436;-2.518;2022-12-07T16:46:29;20.23;;;9.55;;
48859;SDS011;34679;51.436;-2.518;2022-12-07T16:48:56;19.70;;;10.00;;
48859;SDS011;34679;51.436;-2.518;2022-12-07T16:51:22;18.30;;;9.95;;
48859;SDS011;34679;51.436;-2.518;2022-12-07T16:53:48;22.23;;;11.60;;
48859;SDS011;34679;51.436;-2.518;2022-12-07T16:56:14;24.85;;;10.52;;
48859;SDS011;34679;51.436;-2.518;2022-12-07T16:58:41;22.10;;;12.02;;
48859;SDS011;34679;51.436;-2.518;2022-12-07T17:01:08;26.23;;;13.38;;
48859;SDS011;34679;51.436;-2.518;2022-12-07T17:03:35;30.50;;;12.55;;
48859;SDS011;34679;51.436;-2.518;2022-12-07T17:06:01;26.80;;;14.98;;
48859;SDS011;34679;51.436;-2.518;2022-12-07T17:08:26;30.15;;;15.65;;